createdAt,value
2019-05-11T00:01:10.244Z,21.27
2019-05-11T00:03:38.979Z,22.37
2019-05-11T00:06:07.724Z,18.70
2019-05-11T00:08:36.428Z,18.77
2019-05-11T00:11:05.157Z,19.60
2019-05-11T00:13:33.889Z,20.10
2019-05-11T00:16:02.661Z,20.08
2019-05-11T00:18:31.368Z,19.40
2019-05-11T00:21:00.093Z,20.02
2019-05-11T00:23:28.818Z,16.07
2019-05-11T00:25:57.536Z,17.35
2019-05-11T00:28:26.314Z,17.87
2019-05-11T00:30:55.041Z,17.05
2019-05-11T00:33:23.776Z,18.42
2019-05-11T00:35:52.512Z,25.25
2019-05-11T00:38:21.245Z,19.23
2019-05-11T00:40:50.054Z,15.53
2019-05-11T00:43:18.778Z,17.67
2019-05-11T00:45:48.141Z,15.30
2019-05-11T00:48:16.873Z,16.82
2019-05-11T00:50:45.610Z,14.87
2019-05-11T00:53:14.341Z,18.25
2019-05-11T00:55:43.072Z,17.50
2019-05-11T00:58:11.802Z,16.52
2019-05-11T01:00:40.526Z,16.57
2019-05-11T01:03:09.253Z,17.00
2019-05-11T01:05:37.980Z,18.27
2019-05-11T01:08:06.701Z,16.60
2019-05-11T01:10:42.135Z,17.62
2019-05-11T01:13:05.880Z,20.62
2019-05-11T01:15:34.604Z,18.77
2019-05-11T01:18:03.343Z,14.83
2019-05-11T01:20:32.064Z,14.18
2019-05-11T01:23:00.862Z,15.10
2019-05-11T01:25:29.578Z,14.50
2019-05-11T01:27:58.406Z,12.05
2019-05-11T01:30:27.159Z,13.32
2019-05-11T01:32:55.888Z,21.00
2019-05-11T01:35:24.691Z,13.20
2019-05-11T01:37:53.481Z,13.95
2019-05-11T01:40:22.207Z,16.55
2019-05-11T01:42:50.999Z,18.32
2019-05-11T01:45:19.738Z,10.60
2019-05-11T01:47:48.455Z,17.12
2019-05-11T01:50:17.189Z,10.95
2019-05-11T01:52:45.894Z,13.13
2019-05-11T01:55:14.719Z,14.75
2019-05-11T01:57:43.442Z,13.38
2019-05-11T02:00:12.425Z,13.48
2019-05-11T02:02:41.215Z,13.08
2019-05-11T02:05:29.873Z,11.75
2019-05-11T02:08:00.316Z,12.40
2019-05-11T02:10:29.356Z,12.70
2019-05-11T02:12:58.053Z,13.78
2019-05-11T02:15:26.778Z,13.60
2019-05-11T02:17:55.516Z,13.00
2019-05-11T02:20:24.240Z,12.82
2019-05-11T02:22:52.957Z,12.73
2019-05-11T02:25:21.744Z,13.43
2019-05-11T02:27:50.512Z,16.48
2019-05-11T02:30:19.737Z,13.78
2019-05-11T02:32:48.500Z,16.02
2019-05-11T02:35:17.281Z,16.52
2019-05-11T02:37:46.098Z,16.25
2019-05-11T02:40:15.636Z,17.20
2019-05-11T02:42:44.369Z,14.87
2019-05-11T02:45:13.849Z,14.45
2019-05-11T02:47:42.592Z,21.45
2019-05-11T02:50:11.400Z,15.23
2019-05-11T02:52:40.516Z,16.95
2019-05-11T02:55:09.529Z,14.00
2019-05-11T02:57:38.282Z,16.82
2019-05-11T03:00:11.209Z,19.32
2019-05-11T03:02:39.959Z,16.07
2019-05-11T03:05:09.201Z,16.52
2019-05-11T03:07:37.926Z,14.87
2019-05-11T03:10:06.760Z,21.33
2019-05-11T03:12:35.491Z,15.23
2019-05-11T03:15:06.824Z,17.25
2019-05-11T03:17:35.551Z,19.10
2019-05-11T03:20:05.189Z,15.68
2019-05-11T03:22:33.915Z,13.98
2019-05-11T03:25:02.635Z,21.25
2019-05-11T03:27:31.355Z,14.10
2019-05-11T03:30:01.409Z,12.68
2019-05-11T03:32:30.570Z,16.40
2019-05-11T03:34:59.286Z,16.50
2019-05-11T03:37:28.068Z,13.70
2019-05-11T03:39:56.784Z,13.48
2019-05-11T03:42:25.607Z,14.38
2019-05-11T03:44:54.465Z,15.85
2019-05-11T03:47:23.210Z,18.82
2019-05-11T03:49:51.939Z,12.95
2019-05-11T03:52:20.658Z,15.25
2019-05-11T03:54:49.417Z,14.07
2019-05-11T03:57:18.150Z,15.70
2019-05-11T03:59:46.888Z,12.07
2019-05-11T04:02:15.604Z,16.87
2019-05-11T04:04:44.310Z,15.03
2019-05-11T04:07:13.116Z,23.83
2019-05-11T04:09:41.842Z,17.60
2019-05-11T04:12:10.597Z,14.95
2019-05-11T04:14:39.321Z,14.93
2019-05-11T04:17:08.040Z,17.80
2019-05-11T04:19:36.785Z,13.62
2019-05-11T04:22:05.528Z,16.55
2019-05-11T04:24:34.262Z,14.55
2019-05-11T04:27:03.065Z,13.55
2019-05-11T04:29:31.749Z,11.90
2019-05-11T04:32:00.532Z,18.15
2019-05-11T04:34:29.257Z,14.40
2019-05-11T04:36:58.013Z,14.95
2019-05-11T04:39:26.833Z,14.73
2019-05-11T04:41:55.932Z,13.43
2019-05-11T04:44:25.818Z,14.35
2019-05-11T04:46:56.177Z,11.65
2019-05-11T04:49:24.955Z,14.68
2019-05-11T04:51:53.687Z,28.45
2019-05-11T04:54:22.429Z,14.40
2019-05-11T04:56:51.142Z,18.42
2019-05-11T04:59:19.929Z,14.23
2019-05-11T05:01:48.846Z,16.25
2019-05-11T05:04:17.695Z,15.83
2019-05-11T05:06:58.892Z,15.93
2019-05-11T05:09:16.888Z,14.10
2019-05-11T05:11:45.768Z,13.20
2019-05-11T05:14:14.466Z,16.05
2019-05-11T05:16:43.192Z,21.20
2019-05-11T05:19:11.976Z,12.73
2019-05-11T05:21:40.809Z,17.67
2019-05-11T05:24:09.943Z,15.03
2019-05-11T05:26:38.664Z,13.28
2019-05-11T05:29:07.465Z,16.05
2019-05-11T05:31:36.476Z,16.17
2019-05-11T05:34:05.200Z,18.17
2019-05-11T05:36:34.003Z,17.90
2019-05-11T05:39:02.797Z,13.53
2019-05-11T05:41:31.549Z,16.32
2019-05-11T05:44:00.256Z,15.68
2019-05-11T05:46:28.987Z,18.37
2019-05-11T05:48:57.697Z,12.45
2019-05-11T05:51:26.436Z,17.37
2019-05-11T05:53:55.269Z,12.15
2019-05-11T05:56:23.976Z,9.43
2019-05-11T05:58:52.740Z,16.55
2019-05-11T06:01:21.466Z,15.40
2019-05-11T06:03:50.204Z,12.85
2019-05-11T06:06:18.901Z,13.43
2019-05-11T06:08:47.639Z,12.10
2019-05-11T06:11:16.460Z,14.07
2019-05-11T06:13:45.971Z,15.05
2019-05-11T06:16:15.071Z,16.62
2019-05-11T06:18:43.802Z,16.37
2019-05-11T06:21:12.537Z,15.70
2019-05-11T06:23:41.238Z,12.03
2019-05-11T06:26:09.952Z,13.70
2019-05-11T06:28:38.680Z,15.88
2019-05-11T06:31:07.405Z,15.65
2019-05-11T06:33:36.124Z,17.00
2019-05-11T06:36:05.054Z,19.05
2019-05-11T06:38:33.849Z,19.45
2019-05-11T06:41:04.036Z,20.27
2019-05-11T06:43:32.853Z,19.45
2019-05-11T06:46:01.692Z,14.40
2019-05-11T06:48:30.489Z,17.45
2019-05-11T06:50:59.207Z,15.93
2019-05-11T06:53:27.935Z,22.60
2019-05-11T06:55:56.664Z,16.52
2019-05-11T06:58:25.552Z,21.60
2019-05-11T07:00:54.280Z,30.90
2019-05-11T07:03:23.086Z,28.15
2019-05-11T07:05:51.834Z,27.80
2019-05-11T07:08:20.659Z,27.00
2019-05-11T07:10:49.434Z,27.15
2019-05-11T07:13:18.150Z,15.88
2019-05-11T07:15:46.934Z,28.98
2019-05-11T07:18:15.625Z,20.57
2019-05-11T07:20:50.543Z,23.35
2019-05-11T07:23:15.411Z,22.80
2019-05-11T07:25:44.723Z,16.32
2019-05-11T07:28:13.473Z,18.07
2019-05-11T07:30:42.185Z,16.82
2019-05-11T07:33:10.929Z,21.42
2019-05-11T07:35:39.621Z,13.88
2019-05-11T07:38:08.452Z,24.52
2019-05-11T07:40:38.444Z,32.93
2019-05-11T07:43:09.879Z,16.82
2019-05-11T07:45:38.691Z,25.92
2019-05-11T07:48:08.077Z,21.48
2019-05-11T07:50:38.679Z,25.40
2019-05-11T07:53:08.139Z,21.97
2019-05-11T07:55:38.538Z,21.57
2019-05-11T07:58:08.077Z,17.55
2019-05-11T08:00:39.774Z,21.52
2019-05-11T08:03:09.030Z,14.68
2019-05-11T08:05:38.558Z,22.77
2019-05-11T08:08:08.699Z,17.27
2019-05-11T08:10:39.096Z,18.62
2019-05-11T08:13:09.114Z,21.55
2019-05-11T08:15:39.257Z,23.10
2019-05-11T08:18:08.662Z,18.02
2019-05-11T08:20:38.569Z,14.13
2019-05-11T08:23:09.065Z,23.40
2019-05-11T08:25:38.042Z,14.18
2019-05-11T08:28:11.561Z,15.58
2019-05-11T08:30:38.140Z,14.23
2019-05-11T08:33:08.700Z,9.68
2019-05-11T08:35:38.991Z,12.95
2019-05-11T08:38:08.783Z,16.02
2019-05-11T08:40:37.988Z,10.68
2019-05-11T08:43:08.832Z,9.80
2019-05-11T08:45:57.888Z,17.67
2019-05-11T08:48:28.281Z,12.78
2019-05-11T08:50:58.179Z,9.43
2019-05-11T08:53:28.430Z,10.70
2019-05-11T08:55:58.802Z,17.45
2019-05-11T08:58:27.931Z,14.95
2019-05-11T09:00:58.291Z,18.27
2019-05-11T09:03:28.415Z,11.33
2019-05-11T09:05:58.014Z,17.50
2019-05-11T09:08:28.226Z,12.37
2019-05-11T09:10:58.185Z,14.20
2019-05-11T09:13:27.979Z,17.50
2019-05-11T09:15:58.881Z,11.43
2019-05-11T09:18:27.980Z,11.75
2019-05-11T09:20:57.711Z,11.53
2019-05-11T09:23:34.499Z,8.35
2019-05-11T09:25:58.358Z,14.68
2019-05-11T09:28:29.394Z,18.05
2019-05-11T09:30:57.911Z,15.85
2019-05-11T09:33:28.314Z,11.60
2019-05-11T09:35:58.429Z,12.88
2019-05-11T09:38:27.824Z,12.80
2019-05-11T09:40:58.592Z,13.20
2019-05-11T09:43:28.382Z,12.47
2019-05-11T09:45:58.277Z,13.03
2019-05-11T09:48:28.406Z,15.05
2019-05-11T09:50:58.802Z,11.45
2019-05-11T09:53:28.291Z,15.63
2019-05-11T09:55:58.713Z,11.12
2019-05-11T09:58:28.132Z,14.83
2019-05-11T10:00:58.604Z,19.65
2019-05-11T10:03:28.134Z,23.85
2019-05-11T10:05:57.981Z,21.27
2019-05-11T10:08:28.659Z,16.62
2019-05-11T10:10:58.043Z,20.20
2019-05-11T10:13:27.834Z,18.57
2019-05-11T10:16:04.440Z,15.85
2019-05-11T10:18:28.156Z,16.90
2019-05-11T10:20:58.663Z,20.23
2019-05-11T10:23:28.001Z,17.45
2019-05-11T10:25:58.585Z,20.80
2019-05-11T10:28:28.431Z,17.40
2019-05-11T10:30:57.916Z,18.27
2019-05-11T10:33:28.118Z,19.52
2019-05-11T10:36:00.930Z,19.42
2019-05-11T10:38:28.875Z,17.80
2019-05-11T10:40:58.235Z,19.45
2019-05-11T10:43:28.850Z,18.92
2019-05-11T10:45:58.793Z,19.73
2019-05-11T10:48:28.194Z,20.88
2019-05-11T10:50:57.626Z,22.13
2019-05-11T10:53:27.848Z,21.85
2019-05-11T10:55:58.160Z,20.60
2019-05-11T10:58:28.529Z,18.52
2019-05-11T11:00:58.276Z,20.68
2019-05-11T11:03:28.423Z,19.75
2019-05-11T11:05:58.060Z,15.72
2019-05-11T11:08:27.816Z,19.92
2019-05-11T11:10:58.580Z,16.05
2019-05-11T11:13:28.103Z,14.57
2019-05-11T11:15:58.219Z,25.05
2019-05-11T11:18:28.801Z,18.20
2019-05-11T11:20:58.121Z,16.27
2019-05-11T11:23:28.505Z,15.40
2019-05-11T11:25:58.581Z,12.98
2019-05-11T11:28:28.052Z,21.62
2019-05-11T11:30:58.496Z,17.70
2019-05-11T11:33:27.722Z,13.65
2019-05-11T11:35:58.001Z,13.83
2019-05-11T11:38:28.689Z,15.70
2019-05-11T11:40:58.755Z,19.73
2019-05-11T11:43:28.755Z,12.60
2019-05-11T11:45:58.073Z,17.23
2019-05-11T11:48:28.021Z,12.88
2019-05-11T11:50:58.967Z,17.87
2019-05-11T11:53:27.906Z,11.93
2019-05-11T11:55:58.745Z,23.18
2019-05-11T11:58:27.724Z,16.45
2019-05-11T12:00:58.686Z,21.55
2019-05-11T12:03:27.747Z,13.70
2019-05-11T12:05:58.181Z,21.73
2019-05-11T12:08:28.283Z,15.40
2019-05-11T12:10:58.885Z,15.72
2019-05-11T12:13:29.711Z,14.70
2019-05-11T12:15:58.534Z,19.92
2019-05-11T12:18:29.051Z,16.00
2019-05-11T12:20:58.613Z,17.35
2019-05-11T12:23:28.502Z,16.75
2019-05-11T12:25:58.030Z,16.70
2019-05-11T12:28:27.625Z,16.25
2019-05-11T12:30:58.491Z,15.08
2019-05-11T12:33:27.960Z,15.93
2019-05-11T12:35:58.708Z,18.60
2019-05-11T12:38:27.748Z,20.20
2019-05-11T12:40:57.934Z,14.87
2019-05-11T12:43:27.771Z,20.62
2019-05-11T12:45:58.593Z,17.35
2019-05-11T12:48:28.462Z,13.18
2019-05-11T12:50:58.795Z,15.32
2019-05-11T12:53:28.055Z,12.47
2019-05-11T12:55:58.819Z,15.23
2019-05-11T12:58:28.111Z,18.85
2019-05-11T13:00:58.570Z,13.75
2019-05-11T13:03:27.891Z,12.07
2019-05-11T13:05:58.555Z,17.17
2019-05-11T13:08:27.824Z,19.25
2019-05-11T13:10:58.417Z,14.73
2019-05-11T13:13:28.544Z,18.62
2019-05-11T13:15:58.492Z,15.23
2019-05-11T13:18:28.002Z,17.12
2019-05-11T13:20:58.801Z,13.25
2019-05-11T13:23:28.856Z,12.45
2019-05-11T13:25:58.701Z,15.83
2019-05-11T13:28:28.391Z,13.88
2019-05-11T13:30:57.990Z,12.20
2019-05-11T13:33:28.024Z,14.40
2019-05-11T13:35:57.850Z,17.12
2019-05-11T13:38:29.186Z,15.38
2019-05-11T13:40:58.996Z,11.60
2019-05-11T13:43:28.170Z,14.80
2019-05-11T13:45:58.385Z,15.28
2019-05-11T13:48:28.117Z,13.78
2019-05-11T13:51:00.542Z,16.82
2019-05-11T13:53:29.341Z,19.35
2019-05-11T13:56:00.412Z,12.70
2019-05-11T13:58:31.858Z,15.63
2019-05-11T14:01:00.936Z,16.82
2019-05-11T14:03:29.644Z,15.38
2019-05-11T14:05:58.452Z,18.85
2019-05-11T14:08:27.782Z,17.40
2019-05-11T14:10:58.069Z,18.52
2019-05-11T14:13:28.615Z,16.77
2019-05-11T14:15:58.677Z,22.30
2019-05-11T14:18:28.209Z,15.80
2019-05-11T14:20:58.621Z,21.73
2019-05-11T14:23:30.791Z,17.15
2019-05-11T14:25:57.917Z,20.37
2019-05-11T14:28:28.547Z,15.83
2019-05-11T14:30:57.848Z,21.12
2019-05-11T14:33:28.223Z,15.45
2019-05-11T14:35:57.906Z,13.93
2019-05-11T14:38:28.230Z,15.72
2019-05-11T14:40:58.622Z,16.27
2019-05-11T14:43:27.780Z,38.70
2019-05-11T14:45:57.799Z,15.08
2019-05-11T14:48:29.857Z,20.02
2019-05-11T14:50:59.102Z,15.20
2019-05-11T14:53:29.683Z,16.77
2019-05-11T14:55:58.614Z,15.65
2019-05-11T14:58:28.006Z,16.12
2019-05-11T15:00:58.268Z,16.15
2019-05-11T15:03:28.744Z,18.52
2019-05-11T15:05:58.234Z,15.25
2019-05-11T15:08:28.766Z,17.65
2019-05-11T15:10:57.738Z,15.32
2019-05-11T15:13:28.919Z,15.28
2019-05-11T15:15:58.638Z,18.98
2019-05-11T15:18:36.054Z,23.27
2019-05-11T15:20:58.119Z,19.12
2019-05-11T15:23:28.516Z,20.57
2019-05-11T15:25:58.686Z,23.25
2019-05-11T15:28:28.539Z,32.23
2019-05-11T15:30:58.742Z,20.48
2019-05-11T15:33:27.938Z,18.55
2019-05-11T15:35:58.313Z,22.75
2019-05-11T15:38:28.424Z,21.87
2019-05-11T15:40:57.966Z,18.77
2019-05-11T15:43:28.250Z,17.87
2019-05-11T15:45:57.838Z,20.80
2019-05-11T15:48:26.833Z,20.62
2019-05-11T15:50:57.894Z,17.20
2019-05-11T15:53:26.747Z,22.40
2019-05-11T15:55:59.608Z,18.75
2019-05-11T15:58:25.865Z,17.27
2019-05-11T16:00:54.670Z,21.45
2019-05-11T16:03:23.391Z,17.90
2019-05-11T16:05:52.117Z,19.80
2019-05-11T16:08:20.852Z,21.25
2019-05-11T16:10:49.652Z,20.08
2019-05-11T16:13:18.382Z,28.45
2019-05-11T16:15:47.720Z,20.65
2019-05-11T16:18:18.660Z,21.05
2019-05-11T16:20:48.032Z,19.42
2019-05-11T16:23:19.851Z,52.62
2019-05-11T16:25:48.854Z,23.02
2019-05-11T16:28:19.195Z,20.52
2019-05-11T16:30:48.333Z,40.35
2019-05-11T16:33:18.034Z,20.00
2019-05-11T16:35:48.978Z,22.17
2019-05-11T16:38:18.829Z,24.43
2019-05-11T16:40:48.098Z,46.40
2019-05-11T16:43:18.989Z,59.18
2019-05-11T16:45:50.730Z,42.90
2019-05-11T16:48:18.385Z,24.10
2019-05-11T16:50:47.407Z,31.50
2019-05-11T16:53:18.141Z,29.87
2019-05-11T16:55:48.635Z,29.05
2019-05-11T16:58:19.760Z,27.40
2019-05-11T17:00:48.969Z,38.75
2019-05-11T17:03:18.083Z,31.42
2019-05-11T17:05:48.446Z,28.42
2019-05-11T17:08:18.704Z,35.40
2019-05-11T17:10:59.199Z,31.60
2019-05-11T17:13:28.016Z,36.45
2019-05-11T17:15:58.896Z,30.10
2019-05-11T17:18:28.769Z,31.30
2019-05-11T17:20:58.475Z,33.55
2019-05-11T17:23:30.971Z,31.37
2019-05-11T17:25:58.117Z,29.10
2019-05-11T17:28:28.906Z,30.82
2019-05-11T17:30:59.780Z,31.57
2019-05-11T17:33:28.116Z,29.05
2019-05-11T17:35:58.741Z,32.42
2019-05-11T17:38:28.042Z,31.77
2019-05-11T17:40:58.275Z,34.80
2019-05-11T17:43:28.131Z,29.60
2019-05-11T17:45:58.497Z,31.00
2019-05-11T17:48:28.159Z,35.58
2019-05-11T17:50:58.113Z,33.58
2019-05-11T17:53:28.547Z,33.65
2019-05-11T17:55:57.963Z,36.28
2019-05-11T17:58:26.884Z,35.43
2019-05-11T18:00:58.589Z,44.95
2019-05-11T18:03:27.844Z,50.03
2019-05-11T18:05:58.712Z,36.45
2019-05-11T18:08:30.283Z,32.28
2019-05-11T18:10:58.670Z,31.77
2019-05-11T18:13:28.398Z,32.13
2019-05-11T18:15:57.891Z,34.30
2019-05-11T18:18:29.354Z,36.33
2019-05-11T18:20:58.126Z,35.52
2019-05-11T18:23:28.424Z,26.75
2019-05-11T18:25:57.220Z,27.25
2019-05-11T18:28:28.798Z,29.02
2019-05-11T18:30:58.278Z,30.30
2019-05-11T18:33:27.752Z,28.90
2019-05-11T18:35:58.536Z,32.30
2019-05-11T18:38:27.680Z,32.75
2019-05-11T18:40:58.053Z,32.28
2019-05-11T18:43:29.414Z,26.77
2019-05-11T18:45:58.465Z,35.23
2019-05-11T18:48:29.476Z,32.90
2019-05-11T18:51:00.073Z,34.25
2019-05-11T18:53:29.177Z,34.58
2019-05-11T18:55:59.067Z,34.78
2019-05-11T18:58:28.232Z,43.75
2019-05-11T19:00:57.677Z,48.25
2019-05-11T19:03:28.035Z,32.42
2019-05-11T19:05:57.736Z,35.73
2019-05-11T19:08:27.957Z,42.25
2019-05-11T19:10:58.297Z,33.78
2019-05-11T19:13:28.676Z,34.35
2019-05-11T19:15:58.538Z,29.10
2019-05-11T19:18:28.520Z,32.55
2019-05-11T19:20:58.609Z,33.25
2019-05-11T19:23:28.652Z,35.17
2019-05-11T19:25:58.963Z,33.33
2019-05-11T19:28:28.244Z,46.60
2019-05-11T19:30:59.146Z,43.28
2019-05-11T19:33:27.883Z,37.53
2019-05-11T19:35:58.652Z,40.75
2019-05-11T19:38:28.046Z,43.13
2019-05-11T19:40:58.894Z,43.92
2019-05-11T19:43:27.719Z,42.83
2019-05-11T19:45:59.096Z,33.85
2019-05-11T19:48:30.092Z,34.08
2019-05-11T19:51:07.507Z,24.02
2019-05-11T19:53:30.375Z,32.40
2019-05-11T19:55:59.181Z,30.92
2019-05-11T19:58:28.904Z,34.88
2019-05-11T20:00:58.111Z,37.28
2019-05-11T20:03:28.568Z,38.35
2019-05-11T20:05:58.195Z,37.83
2019-05-11T20:08:29.064Z,37.63
2019-05-11T20:10:58.613Z,43.95
2019-05-11T20:13:28.384Z,38.63
2019-05-11T20:15:57.839Z,48.23
2019-05-11T20:18:28.828Z,47.35
2019-05-11T20:20:57.265Z,65.87
2019-05-11T20:23:27.423Z,88.87
2019-05-11T20:25:58.225Z,104.35
2019-05-11T20:28:28.451Z,112.88
2019-05-11T20:30:58.723Z,119.53
2019-05-11T20:33:28.047Z,139.57
2019-05-11T20:35:58.135Z,112.75
2019-05-11T20:38:27.974Z,92.30
2019-05-11T20:40:57.769Z,85.67
2019-05-11T20:43:27.950Z,82.00
2019-05-11T20:45:56.852Z,69.25
2019-05-11T20:48:27.559Z,65.85
2019-05-11T20:50:57.703Z,78.42
2019-05-11T20:53:28.683Z,73.75
2019-05-11T20:55:58.250Z,67.20
2019-05-11T20:58:29.058Z,65.67
2019-05-11T21:01:00.002Z,59.65
2019-05-11T21:03:28.762Z,63.50
2019-05-11T21:05:58.583Z,63.45
2019-05-11T21:08:28.414Z,67.53
2019-05-11T21:10:58.145Z,61.73
2019-05-11T21:13:28.206Z,64.87
2019-05-11T21:15:59.337Z,62.20
2019-05-11T21:18:28.778Z,66.73
2019-05-11T21:20:57.831Z,65.45
2019-05-11T21:23:28.827Z,61.50
2019-05-11T21:25:57.205Z,59.80
2019-05-11T21:28:26.053Z,64.80
2019-05-11T21:30:54.957Z,58.87
2019-05-11T21:33:23.746Z,56.85
2019-05-11T21:35:52.474Z,56.55
2019-05-11T21:38:21.269Z,59.08
2019-05-11T21:40:50.025Z,57.08
2019-05-11T21:43:18.710Z,54.73
2019-05-11T21:45:47.607Z,56.25
2019-05-11T21:48:16.322Z,60.85
2019-05-11T21:50:46.212Z,55.80
2019-05-11T21:53:14.944Z,60.48
2019-05-11T21:55:43.740Z,59.33
2019-05-11T21:58:12.532Z,59.23
2019-05-11T22:00:41.457Z,58.48
2019-05-11T22:03:10.549Z,59.93
2019-05-11T22:05:41.712Z,57.95
2019-05-11T22:08:10.469Z,65.92
2019-05-11T22:10:39.284Z,55.90
2019-05-11T22:13:08.599Z,57.33
2019-05-11T22:15:38.625Z,58.02
2019-05-11T22:18:08.053Z,59.83
2019-05-11T22:20:38.033Z,63.48
2019-05-11T22:23:08.512Z,58.87
2019-05-11T22:25:38.126Z,65.30
2019-05-11T22:28:08.387Z,61.53
2019-05-11T22:30:39.301Z,57.67
2019-05-11T22:33:08.772Z,54.23
2019-05-11T22:35:38.575Z,56.92
2019-05-11T22:38:08.448Z,51.90
2019-05-11T22:40:38.349Z,52.70
2019-05-11T22:43:09.287Z,51.45
2019-05-11T22:45:38.341Z,55.83
2019-05-11T22:48:08.141Z,56.63
2019-05-11T22:50:38.249Z,53.63
2019-05-11T22:53:08.712Z,55.03
2019-05-11T22:55:38.195Z,55.30
2019-05-11T22:58:09.434Z,57.35
2019-05-11T23:00:42.888Z,51.63
2019-05-11T23:03:11.878Z,48.98
2019-05-11T23:05:41.966Z,48.05
2019-05-11T23:08:12.083Z,48.40
2019-05-11T23:10:40.901Z,45.50
2019-05-11T23:13:11.665Z,49.58
2019-05-11T23:15:40.879Z,49.70
2019-05-11T23:18:09.598Z,45.78
2019-05-11T23:20:38.838Z,46.37
2019-05-11T23:23:08.694Z,46.02
2019-05-11T23:25:37.788Z,43.85
2019-05-11T23:28:06.499Z,43.83
2019-05-11T23:30:35.261Z,42.90
2019-05-11T23:33:03.957Z,41.68
2019-05-11T23:35:33.841Z,38.90
2019-05-11T23:38:02.577Z,40.80
2019-05-11T23:40:31.292Z,42.17
2019-05-11T23:43:00.280Z,38.35
2019-05-11T23:45:29.005Z,35.00
2019-05-11T23:47:58.875Z,32.35
2019-05-11T23:50:28.276Z,29.80
2019-05-11T23:53:05.909Z,31.48
2019-05-11T23:55:29.034Z,32.67
2019-05-11T23:57:58.046Z,34.15
